sensor_id;sensor_type;location;lat;lon;timestamp;pressure;altitude;pressure_sealevel;temperature;humidity
66664;BME280;59683;51.428;-1.994;2023-09-08T00:01:59;100844.66;;;17.49;100.00
66664;BME280;59683;51.428;-1.994;2023-09-08T00:04:25;100836.25;;;17.44;100.00
66664;BME280;59683;51.428;-1.994;2023-09-08T00:06:50;100834.91;;;17.40;100.00
66664;BME280;59683;51.428;-1.994;2023-09-08T00:09:16;100843.56;;;17.34;100.00
66664;BME280;59683;51.428;-1.994;2023-09-08T00:11:41;100834.19;;;17.30;100.00
66664;BME280;59683;51.428;-1.994;2023-09-08T00:14:07;100833.00;;;17.24;100.00
66664;BME280;59683;51.428;-1.994;2023-09-08T00:16:32;100829.81;;;17.20;100.00
66664;BME280;59683;51.428;-1.994;2023-09-08T00:18:58;100835.16;;;17.20;100.00
66664;BME280;59683;51.428;-1.994;2023-09-08T00:21:25;100836.50;;;17.16;100.00
66664;BME280;59683;51.428;-1.994;2023-09-08T00:23:51;100845.81;;;17.12;100.00
66664;BME280;59683;51.428;-1.994;2023-09-08T00:26:16;100849.97;;;17.07;100.00
66664;BME280;59683;51.428;-1.994;2023-09-08T00:28:42;100848.28;;;17.06;100.00
66664;BME280;59683;51.428;-1.994;2023-09-08T00:31:07;100843.78;;;17.06;100.00
66664;BME280;59683;51.428;-1.994;2023-09-08T00:33:32;100842.25;;;17.04;100.00
66664;BME280;59683;51.428;-1.994;2023-09-08T00:35:58;100843.56;;;16.99;100.00
66664;BME280;59683;51.428;-1.994;2023-09-08T00:38:24;100845.88;;;16.94;100.00
66664;BME280;59683;51.428;-1.994;2023-09-08T00:40:49;100849.03;;;16.90;100.00
66664;BME280;59683;51.428;-1.994;2023-09-08T00:43:14;100845.44;;;16.81;100.00
66664;BME280;59683;51.428;-1.994;2023-09-08T00:45:42;100838.06;;;16.75;100.00
66664;BME280;59683;51.428;-1.994;2023-09-08T00:48:08;100831.47;;;16.69;100.00
66664;BME280;59683;51.428;-1.994;2023-09-08T00:50:35;100839.13;;;16.64;100.00
66664;BME280;59683;51.428;-1.994;2023-09-08T00:53:02;100829.22;;;16.57;100.00
66664;BME280;59683;51.428;-1.994;2023-09-08T00:55:28;100831.38;;;16.53;100.00
66664;BME280;59683;51.428;-1.994;2023-09-08T00:57:53;100825.66;;;16.48;100.00
66664;BME280;59683;51.428;-1.994;2023-09-08T01:00:19;100832.97;;;16.46;100.00
66664;BME280;59683;51.428;-1.994;2023-09-08T01:02:45;100832.97;;;16.46;100.00
66664;BME280;59683;51.428;-1.994;2023-09-08T01:05:10;100829.63;;;16.44;100.00
66664;BME280;59683;51.428;-1.994;2023-09-08T01:07:36;100822.94;;;16.40;100.00
66664;BME280;59683;51.428;-1.994;2023-09-08T01:10:02;100829.25;;;16.39;100.00
66664;BME280;59683;51.428;-1.994;2023-09-08T01:12:32;100829.09;;;16.40;100.00
66664;BME280;59683;51.428;-1.994;2023-09-08T01:14:58;100829.25;;;16.39;100.00
66664;BME280;59683;51.428;-1.994;2023-09-08T01:17:25;100836.59;;;16.37;100.00
66664;BME280;59683;51.428;-1.994;2023-09-08T01:19:53;100842.25;;;16.34;100.00
66664;BME280;59683;51.428;-1.994;2023-09-08T01:27:32;100824.84;;;16.30;100.00
66664;BME280;59683;51.428;-1.994;2023-09-08T01:29:59;100829.88;;;16.33;100.00
66664;BME280;59683;51.428;-1.994;2023-09-08T01:32:25;100826.03;;;16.35;100.00
66664;BME280;59683;51.428;-1.994;2023-09-08T01:34:51;100824.38;;;16.34;100.00
66664;BME280;59683;51.428;-1.994;2023-09-08T01:37:17;100823.84;;;16.31;100.00
66664;BME280;59683;51.428;-1.994;2023-09-08T01:39:42;100825.16;;;16.26;100.00
66664;BME280;59683;51.428;-1.994;2023-09-08T01:42:08;100817.59;;;16.22;100.00
66664;BME280;59683;51.428;-1.994;2023-09-08T01:44:33;100820.75;;;16.17;100.00
66664;BME280;59683;51.428;-1.994;2023-09-08T01:46:59;100822.25;;;16.20;100.00
66664;BME280;59683;51.428;-1.994;2023-09-08T01:49:24;100823.06;;;16.20;100.00
66664;BME280;59683;51.428;-1.994;2023-09-08T01:51:50;100827.28;;;16.23;100.00
66664;BME280;59683;51.428;-1.994;2023-09-08T01:54:16;100824.59;;;16.23;100.00
66664;BME280;59683;51.428;-1.994;2023-09-08T01:56:41;100811.25;;;16.23;100.00
66664;BME280;59683;51.428;-1.994;2023-09-08T01:59:07;100808.88;;;16.20;100.00
66664;BME280;59683;51.428;-1.994;2023-09-08T02:01:32;100812.03;;;16.15;100.00
66664;BME280;59683;51.428;-1.994;2023-09-08T02:03:57;100809.97;;;16.09;100.00
66664;BME280;59683;51.428;-1.994;2023-09-08T02:06:23;100799.06;;;16.02;100.00
66664;BME280;59683;51.428;-1.994;2023-09-08T02:08:48;100805.72;;;15.98;100.00
66664;BME280;59683;51.428;-1.994;2023-09-08T02:11:14;100802.09;;;15.90;100.00
66664;BME280;59683;51.428;-1.994;2023-09-08T02:13:42;100804.41;;;15.85;100.00
66664;BME280;59683;51.428;-1.994;2023-09-08T02:16:07;100800.81;;;15.76;100.00
66664;BME280;59683;51.428;-1.994;2023-09-08T02:18:33;100807.75;;;15.69;100.00
66664;BME280;59683;51.428;-1.994;2023-09-08T02:20:58;100804.53;;;15.65;100.00
66664;BME280;59683;51.428;-1.994;2023-09-08T02:23:24;100803.13;;;15.61;100.00
66664;BME280;59683;51.428;-1.994;2023-09-08T02:25:49;100807.94;;;15.58;100.00
66664;BME280;59683;51.428;-1.994;2023-09-08T02:28:14;100811.56;;;15.57;100.00
66664;BME280;59683;51.428;-1.994;2023-09-08T02:30:40;100813.94;;;15.60;100.00
66664;BME280;59683;51.428;-1.994;2023-09-08T02:33:05;100825.59;;;15.59;100.00
66664;BME280;59683;51.428;-1.994;2023-09-08T02:35:36;100818.72;;;15.56;100.00
66664;BME280;59683;51.428;-1.994;2023-09-08T02:38:01;100817.50;;;15.50;100.00
66664;BME280;59683;51.428;-1.994;2023-09-08T02:40:27;100821.31;;;15.48;100.00
66664;BME280;59683;51.428;-1.994;2023-09-08T02:42:52;100816.97;;;15.47;100.00
66664;BME280;59683;51.428;-1.994;2023-09-08T02:45:17;100819.94;;;15.44;100.00
66664;BME280;59683;51.428;-1.994;2023-09-08T02:47:43;100815.88;;;15.40;100.00
66664;BME280;59683;51.428;-1.994;2023-09-08T02:50:08;100808.47;;;15.34;100.00
66664;BME280;59683;51.428;-1.994;2023-09-08T02:52:34;100819.56;;;15.29;100.00
66664;BME280;59683;51.428;-1.994;2023-09-08T02:54:59;100806.81;;;15.23;100.00
66664;BME280;59683;51.428;-1.994;2023-09-08T02:57:25;100813.31;;;15.20;100.00
66664;BME280;59683;51.428;-1.994;2023-09-08T02:59:50;100810.09;;;15.17;100.00
66664;BME280;59683;51.428;-1.994;2023-09-08T03:02:21;100816.72;;;15.13;100.00
66664;BME280;59683;51.428;-1.994;2023-09-08T03:04:47;100819.78;;;15.08;100.00
66664;BME280;59683;51.428;-1.994;2023-09-08T03:07:12;100812.25;;;15.03;100.00
66664;BME280;59683;51.428;-1.994;2023-09-08T03:09:37;100808.47;;;14.96;100.00
66664;BME280;59683;51.428;-1.994;2023-09-08T03:12:03;100811.31;;;14.95;100.00
66664;BME280;59683;51.428;-1.994;2023-09-08T03:14:28;100814.25;;;14.92;100.00
66664;BME280;59683;51.428;-1.994;2023-09-08T03:16:54;100822.41;;;14.90;100.00
66664;BME280;59683;51.428;-1.994;2023-09-08T03:19:19;100806.25;;;14.92;100.00
66664;BME280;59683;51.428;-1.994;2023-09-08T03:21:45;100808.78;;;14.93;100.00
66664;BME280;59683;51.428;-1.994;2023-09-08T03:24:10;100813.97;;;14.95;100.00
66664;BME280;59683;51.428;-1.994;2023-09-08T03:26:35;100813.97;;;14.95;100.00
66664;BME280;59683;51.428;-1.994;2023-09-08T03:29:01;100813.97;;;14.95;100.00
66664;BME280;59683;51.428;-1.994;2023-09-08T03:31:26;100813.25;;;14.93;100.00
66664;BME280;59683;51.428;-1.994;2023-09-08T03:33:52;100810.59;;;14.93;100.00
66664;BME280;59683;51.428;-1.994;2023-09-08T03:36:18;100808.09;;;14.91;100.00
66664;BME280;59683;51.428;-1.994;2023-09-08T03:38:43;100809.91;;;14.91;100.00
66664;BME280;59683;51.428;-1.994;2023-09-08T03:41:09;100813.84;;;14.87;100.00
66664;BME280;59683;51.428;-1.994;2023-09-08T03:43:34;100815.25;;;14.81;100.00
66664;BME280;59683;51.428;-1.994;2023-09-08T03:45:59;100812.47;;;14.73;100.00
66664;BME280;59683;51.428;-1.994;2023-09-08T03:48:25;100805.22;;;14.65;100.00
66664;BME280;59683;51.428;-1.994;2023-09-08T03:50:50;100800.03;;;14.64;100.00
66664;BME280;59683;51.428;-1.994;2023-09-08T03:53:16;100802.97;;;14.61;100.00
66664;BME280;59683;51.428;-1.994;2023-09-08T03:55:41;100806.91;;;14.56;100.00
66664;BME280;59683;51.428;-1.994;2023-09-08T03:58:10;100808.75;;;14.56;100.00
66664;BME280;59683;51.428;-1.994;2023-09-08T04:00:35;100812.81;;;14.60;100.00
66664;BME280;59683;51.428;-1.994;2023-09-08T04:03:01;100805.78;;;14.59;100.00
66664;BME280;59683;51.428;-1.994;2023-09-08T04:05:26;100809.16;;;14.61;100.00
66664;BME280;59683;51.428;-1.994;2023-09-08T04:07:52;100802.97;;;14.61;100.00
66664;BME280;59683;51.428;-1.994;2023-09-08T04:10:18;100808.31;;;14.61;100.00
66664;BME280;59683;51.428;-1.994;2023-09-08T04:12:43;100809.31;;;14.60;100.00
66664;BME280;59683;51.428;-1.994;2023-09-08T04:15:09;100812.53;;;14.63;100.00
66664;BME280;59683;51.428;-1.994;2023-09-08T04:17:35;100815.72;;;14.67;100.00
66664;BME280;59683;51.428;-1.994;2023-09-08T04:20:05;100815.88;;;14.65;100.00
66664;BME280;59683;51.428;-1.994;2023-09-08T04:22:31;100811.38;;;14.66;100.00
66664;BME280;59683;51.428;-1.994;2023-09-08T04:24:57;100821.91;;;14.67;100.00
66664;BME280;59683;51.428;-1.994;2023-09-08T04:27:23;100819.25;;;14.67;100.00
66664;BME280;59683;51.428;-1.994;2023-09-08T04:29:48;100830.56;;;14.69;100.00
66664;BME280;59683;51.428;-1.994;2023-09-08T04:32:14;100837.88;;;14.67;100.00
66664;BME280;59683;51.428;-1.994;2023-09-08T04:34:40;100830.19;;;14.64;100.00
66664;BME280;59683;51.428;-1.994;2023-09-08T04:37:06;100825.84;;;14.63;100.00
66664;BME280;59683;51.428;-1.994;2023-09-08T04:39:32;100828.78;;;14.60;100.00
66664;BME280;59683;51.428;-1.994;2023-09-08T04:41:57;100818.56;;;14.55;100.00
66664;BME280;59683;51.428;-1.994;2023-09-08T04:44:23;100825.00;;;14.53;100.00
66664;BME280;59683;51.428;-1.994;2023-09-08T04:46:48;100822.34;;;14.53;100.00
66664;BME280;59683;51.428;-1.994;2023-09-08T04:49:14;100829.50;;;14.52;100.00
66664;BME280;59683;51.428;-1.994;2023-09-08T04:51:39;100820.78;;;14.50;100.00
66664;BME280;59683;51.428;-1.994;2023-09-08T04:54:04;100822.88;;;14.47;100.00
66664;BME280;59683;51.428;-1.994;2023-09-08T04:56:30;100827.63;;;14.43;100.00
66664;BME280;59683;51.428;-1.994;2023-09-08T04:58:55;100837.59;;;14.41;100.00
66664;BME280;59683;51.428;-1.994;2023-09-08T05:01:23;100829.47;;;14.43;100.00
66664;BME280;59683;51.428;-1.994;2023-09-08T05:03:48;100825.97;;;14.42;100.00
66664;BME280;59683;51.428;-1.994;2023-09-08T05:06:14;100819.94;;;14.40;100.00
66664;BME280;59683;51.428;-1.994;2023-09-08T05:08:39;100819.25;;;14.38;100.00
66664;BME280;59683;51.428;-1.994;2023-09-08T05:11:05;100820.25;;;14.37;100.00
66664;BME280;59683;51.428;-1.994;2023-09-08T05:13:30;100811.53;;;14.35;100.00
66664;BME280;59683;51.428;-1.994;2023-09-08T05:15:56;100810.84;;;14.33;100.00
66664;BME280;59683;51.428;-1.994;2023-09-08T05:18:37;100811.81;;;14.32;100.00
66664;BME280;59683;51.428;-1.994;2023-09-08T05:21:03;100811.69;;;14.33;100.00
66664;BME280;59683;51.428;-1.994;2023-09-08T05:23:28;100811.69;;;14.33;100.00
66664;BME280;59683;51.428;-1.994;2023-09-08T08:24:20;100826.22;;;22.97;100.00
66664;BME280;59683;51.428;-1.994;2023-09-08T08:26:46;100822.84;;;23.23;100.00
66664;BME280;59683;51.428;-1.994;2023-09-08T08:29:11;100835.38;;;23.38;100.00
66664;BME280;59683;51.428;-1.994;2023-09-08T08:31:37;100837.56;;;23.56;100.00
66664;BME280;59683;51.428;-1.994;2023-09-08T08:34:02;100839.75;;;23.73;100.00
66664;BME280;59683;51.428;-1.994;2023-09-08T08:36:28;100829.78;;;23.87;100.00
66664;BME280;59683;51.428;-1.994;2023-09-08T08:38:54;100838.53;;;23.89;100.00
66664;BME280;59683;51.428;-1.994;2023-09-08T08:41:19;100836.41;;;23.78;100.00
66664;BME280;59683;51.428;-1.994;2023-09-08T08:43:45;100838.03;;;23.72;100.00
66664;BME280;59683;51.428;-1.994;2023-09-08T08:46:12;100829.47;;;23.62;100.00
66664;BME280;59683;51.428;-1.994;2023-09-08T08:48:39;100836.09;;;23.53;100.00
66664;BME280;59683;51.428;-1.994;2023-09-08T08:51:05;100831.28;;;23.48;100.00
66664;BME280;59683;51.428;-1.994;2023-09-08T08:59:12;100827.91;;;23.81;100.00
66664;BME280;59683;51.428;-1.994;2023-09-08T09:01:38;100839.38;;;23.96;100.00
66664;BME280;59683;51.428;-1.994;2023-09-08T09:04:07;100841.06;;;24.04;100.00
66664;BME280;59683;51.428;-1.994;2023-09-08T09:06:34;100843.19;;;24.35;100.00
66664;BME280;59683;51.428;-1.994;2023-09-08T09:08:59;100846.34;;;24.79;100.00
66664;BME280;59683;51.428;-1.994;2023-09-08T09:11:26;100850.97;;;25.50;100.00
66664;BME280;59683;51.428;-1.994;2023-09-08T09:13:51;100851.69;;;26.47;100.00
66664;BME280;59683;51.428;-1.994;2023-09-08T09:16:16;100854.75;;;27.25;100.00
66664;BME280;59683;51.428;-1.994;2023-09-08T09:18:54;100857.94;;;28.31;100.00
66664;BME280;59683;51.428;-1.994;2023-09-08T09:21:21;100856.16;;;28.67;100.00
66664;BME280;59683;51.428;-1.994;2023-09-08T09:23:46;100852.25;;;29.10;100.00
66664;BME280;59683;51.428;-1.994;2023-09-08T09:26:22;100859.00;;;29.19;100.00
66664;BME280;59683;51.428;-1.994;2023-09-08T09:28:49;100857.94;;;29.20;100.00
66664;BME280;59683;51.428;-1.994;2023-09-08T09:31:14;100851.13;;;29.46;100.00
66664;BME280;59683;51.428;-1.994;2023-09-08T09:33:40;100856.34;;;30.05;100.00
66664;BME280;59683;51.428;-1.994;2023-09-08T09:36:05;100849.41;;;30.59;100.00
66664;BME280;59683;51.428;-1.994;2023-09-08T09:38:31;100850.16;;;31.10;100.00
66664;BME280;59683;51.428;-1.994;2023-09-08T09:41:00;100843.31;;;31.08;100.00
66664;BME280;59683;51.428;-1.994;2023-09-08T09:43:27;100843.09;;;31.31;100.00
66664;BME280;59683;51.428;-1.994;2023-09-08T09:45:53;100830.91;;;31.00;100.00
66664;BME280;59683;51.428;-1.994;2023-09-08T09:48:20;100830.66;;;31.24;100.00
66664;BME280;59683;51.428;-1.994;2023-09-08T09:50:46;100837.44;;;31.38;97.61
66664;BME280;59683;51.428;-1.994;2023-09-08T09:53:13;100839.44;;;31.69;91.50
66664;BME280;59683;51.428;-1.994;2023-09-08T09:55:43;100843.72;;;31.60;92.87
66664;BME280;59683;51.428;-1.994;2023-09-08T09:58:08;100846.34;;;31.50;91.15
66664;BME280;59683;51.428;-1.994;2023-09-08T10:00:36;100850.66;;;31.68;79.17
66664;BME280;59683;51.428;-1.994;2023-09-08T10:03:03;100850.97;;;31.72;72.83
66664;BME280;59683;51.428;-1.994;2023-09-08T10:05:29;100846.81;;;31.91;68.11
66664;BME280;59683;51.428;-1.994;2023-09-08T10:07:55;100841.69;;;32.00;69.42
66664;BME280;59683;51.428;-1.994;2023-09-08T10:10:21;100847.59;;;32.13;71.08
66664;BME280;59683;51.428;-1.994;2023-09-08T10:12:54;100843.06;;;32.29;77.20
66664;BME280;59683;51.428;-1.994;2023-09-08T10:15:24;100848.81;;;32.97;63.82
66664;BME280;59683;51.428;-1.994;2023-09-08T10:17:55;100850.59;;;33.24;66.22
66664;BME280;59683;51.428;-1.994;2023-09-08T10:20:26;100843.78;;;33.31;57.37
66664;BME280;59683;51.428;-1.994;2023-09-08T10:23:06;100837.84;;;33.50;54.55
66664;BME280;59683;51.428;-1.994;2023-09-08T10:25:37;100845.81;;;33.51;52.63
66664;BME280;59683;51.428;-1.994;2023-09-08T10:28:05;100837.34;;;33.73;52.54
66664;BME280;59683;51.428;-1.994;2023-09-08T10:30:31;100847.75;;;33.66;48.68
66664;BME280;59683;51.428;-1.994;2023-09-08T10:32:58;100840.13;;;33.89;47.08
66664;BME280;59683;51.428;-1.994;2023-09-08T10:35:24;100838.00;;;34.06;50.60
66664;BME280;59683;51.428;-1.994;2023-09-08T10:37:50;100841.31;;;34.39;47.11
66664;BME280;59683;51.428;-1.994;2023-09-08T10:40:25;100837.75;;;34.53;47.51
66664;BME280;59683;51.428;-1.994;2023-09-08T10:43:08;100840.47;;;34.64;44.32
66664;BME280;59683;51.428;-1.994;2023-09-08T10:45:34;100842.63;;;34.82;48.33
66664;BME280;59683;51.428;-1.994;2023-09-08T10:48:00;100838.56;;;34.54;48.52
66664;BME280;59683;51.428;-1.994;2023-09-08T10:50:29;100839.91;;;34.41;46.75
66664;BME280;59683;51.428;-1.994;2023-09-08T10:53:16;100837.16;;;34.67;43.59
66664;BME280;59683;51.428;-1.994;2023-09-08T10:55:43;100839.66;;;34.68;44.25
66664;BME280;59683;51.428;-1.994;2023-09-08T10:58:17;100839.75;;;35.28;47.84
66664;BME280;59683;51.428;-1.994;2023-09-08T11:00:50;100834.75;;;35.95;38.91
66664;BME280;59683;51.428;-1.994;2023-09-08T11:03:42;100832.34;;;35.83;42.19
66664;BME280;59683;51.428;-1.994;2023-09-08T11:06:09;100821.28;;;35.39;42.27
66664;BME280;59683;51.428;-1.994;2023-09-08T11:08:38;100826.63;;;35.74;39.78
66664;BME280;59683;51.428;-1.994;2023-09-08T11:11:03;100824.03;;;35.44;41.41
66664;BME280;59683;51.428;-1.994;2023-09-08T11:13:29;100823.69;;;36.05;40.32
66664;BME280;59683;51.428;-1.994;2023-09-08T11:15:55;100829.19;;;35.61;41.29
66664;BME280;59683;51.428;-1.994;2023-09-08T11:18:30;100827.16;;;35.22;42.83
66664;BME280;59683;51.428;-1.994;2023-09-08T11:20:57;100820.28;;;35.24;43.40
66664;BME280;59683;51.428;-1.994;2023-09-08T11:23:23;100819.75;;;35.72;41.41
66664;BME280;59683;51.428;-1.994;2023-09-08T11:25:50;100818.00;;;35.37;43.92
66664;BME280;59683;51.428;-1.994;2023-09-08T11:28:17;100816.88;;;35.87;42.59
66664;BME280;59683;51.428;-1.994;2023-09-08T11:30:46;100821.38;;;36.17;41.99
66664;BME280;59683;51.428;-1.994;2023-09-08T11:33:15;100820.69;;;36.65;39.25
66664;BME280;59683;51.428;-1.994;2023-09-08T11:38:11;100815.78;;;36.28;40.66
66664;BME280;59683;51.428;-1.994;2023-09-08T11:40:37;100813.94;;;35.79;40.28
66664;BME280;59683;51.428;-1.994;2023-09-08T11:43:03;100814.56;;;35.65;41.14
66664;BME280;59683;51.428;-1.994;2023-09-08T11:45:30;100813.63;;;35.85;42.38
66664;BME280;59683;51.428;-1.994;2023-09-08T11:47:57;100811.16;;;36.18;40.83
66664;BME280;59683;51.428;-1.994;2023-09-08T11:50:23;100814.53;;;36.49;38.98
66664;BME280;59683;51.428;-1.994;2023-09-08T11:52:50;100815.66;;;36.72;42.03
66664;BME280;59683;51.428;-1.994;2023-09-08T11:55:17;100806.09;;;36.88;37.01
66664;BME280;59683;51.428;-1.994;2023-09-08T11:57:45;100815.91;;;37.00;40.68
66664;BME280;59683;51.428;-1.994;2023-09-08T12:00:12;100812.53;;;37.27;37.82
66664;BME280;59683;51.428;-1.994;2023-09-08T12:02:42;100818.44;;;37.63;34.93
66664;BME280;59683;51.428;-1.994;2023-09-08T12:05:40;100809.06;;;37.40;39.95
66664;BME280;59683;51.428;-1.994;2023-09-08T12:08:07;100807.75;;;37.56;37.85
66664;BME280;59683;51.428;-1.994;2023-09-08T12:10:40;100806.16;;;37.31;38.41
66664;BME280;59683;51.428;-1.994;2023-09-08T12:13:07;100798.13;;;37.54;37.57
66664;BME280;59683;51.428;-1.994;2023-09-08T12:15:39;100797.75;;;37.79;36.12
66664;BME280;59683;51.428;-1.994;2023-09-08T12:18:07;100809.38;;;37.76;34.74
66664;BME280;59683;51.428;-1.994;2023-09-08T12:20:33;100805.59;;;37.91;35.86
66664;BME280;59683;51.428;-1.994;2023-09-08T12:23:05;100817.69;;;38.28;34.33
66664;BME280;59683;51.428;-1.994;2023-09-08T12:25:32;100815.22;;;37.75;35.89
66664;BME280;59683;51.428;-1.994;2023-09-08T12:27:59;100811.91;;;37.54;38.79
66664;BME280;59683;51.428;-1.994;2023-09-08T12:30:25;100810.97;;;38.01;36.14
66664;BME280;59683;51.428;-1.994;2023-09-08T12:32:56;100806.03;;;37.79;36.77
66664;BME280;59683;51.428;-1.994;2023-09-08T12:35:23;100806.84;;;37.80;36.90
66664;BME280;59683;51.428;-1.994;2023-09-08T12:38:07;100798.28;;;37.81;37.86
66664;BME280;59683;51.428;-1.994;2023-09-08T12:40:37;100803.25;;;37.79;38.15
66664;BME280;59683;51.428;-1.994;2023-09-08T12:43:04;100793.34;;;37.78;37.70
66664;BME280;59683;51.428;-1.994;2023-09-08T12:45:29;100796.63;;;37.42;38.24
66664;BME280;59683;51.428;-1.994;2023-09-08T12:47:59;100800.19;;;38.19;36.47
66664;BME280;59683;51.428;-1.994;2023-09-08T12:50:25;100800.47;;;38.50;34.71
66664;BME280;59683;51.428;-1.994;2023-09-08T12:52:51;100792.16;;;38.36;35.69
66664;BME280;59683;51.428;-1.994;2023-09-08T12:55:16;100797.69;;;38.36;35.06
66664;BME280;59683;51.428;-1.994;2023-09-08T12:57:42;100800.41;;;38.96;32.13
66664;BME280;59683;51.428;-1.994;2023-09-08T13:00:07;100801.63;;;38.76;34.09
66664;BME280;59683;51.428;-1.994;2023-09-08T13:02:33;100800.72;;;38.67;33.78
66664;BME280;59683;51.428;-1.994;2023-09-08T13:04:59;100798.97;;;38.71;35.15
66664;BME280;59683;51.428;-1.994;2023-09-08T13:07:26;100792.19;;;39.46;31.85
66664;BME280;59683;51.428;-1.994;2023-09-08T13:09:51;100787.06;;;38.57;35.96
66664;BME280;59683;51.428;-1.994;2023-09-08T13:12:17;100786.38;;;38.79;34.75
66664;BME280;59683;51.428;-1.994;2023-09-08T13:14:43;100781.66;;;38.52;33.31
66664;BME280;59683;51.428;-1.994;2023-09-08T13:17:10;100784.81;;;38.59;35.46
66664;BME280;59683;51.428;-1.994;2023-09-08T13:19:35;100780.75;;;38.84;34.39
66664;BME280;59683;51.428;-1.994;2023-09-08T13:22:03;100772.81;;;39.32;33.63
66664;BME280;59683;51.428;-1.994;2023-09-08T13:24:29;100790.28;;;39.69;32.26
66664;BME280;59683;51.428;-1.994;2023-09-08T13:26:54;100778.88;;;39.34;31.80
66664;BME280;59683;51.428;-1.994;2023-09-08T13:29:19;100775.28;;;39.34;33.96
66664;BME280;59683;51.428;-1.994;2023-09-08T13:31:45;100766.47;;;39.68;31.84
66664;BME280;59683;51.428;-1.994;2023-09-08T13:34:10;100765.53;;;39.23;35.20
66664;BME280;59683;51.428;-1.994;2023-09-08T13:36:35;100759.19;;;39.22;32.61
66664;BME280;59683;51.428;-1.994;2023-09-08T13:39:01;100758.22;;;39.41;31.03
66664;BME280;59683;51.428;-1.994;2023-09-08T13:41:56;100760.41;;;39.30;31.89
66664;BME280;59683;51.428;-1.994;2023-09-08T13:44:22;100756.53;;;38.76;34.30
66664;BME280;59683;51.428;-1.994;2023-09-08T13:46:54;100765.56;;;38.68;33.49
66664;BME280;59683;51.428;-1.994;2023-09-08T13:49:20;100755.06;;;39.33;31.77
66664;BME280;59683;51.428;-1.994;2023-09-08T13:51:46;100748.38;;;38.98;33.51
66664;BME280;59683;51.428;-1.994;2023-09-08T13:54:12;100750.75;;;38.31;35.01
66664;BME280;59683;51.428;-1.994;2023-09-08T13:56:39;100750.16;;;38.48;33.26
66664;BME280;59683;51.428;-1.994;2023-09-08T13:59:05;100751.34;;;38.74;33.98
66664;BME280;59683;51.428;-1.994;2023-09-08T14:01:32;100740.66;;;39.09;34.00
66664;BME280;59683;51.428;-1.994;2023-09-08T14:03:58;100729.53;;;38.86;33.85
66664;BME280;59683;51.428;-1.994;2023-09-08T14:06:26;100729.78;;;39.13;32.88
66664;BME280;59683;51.428;-1.994;2023-09-08T14:08:52;100729.28;;;39.24;34.61
66664;BME280;59683;51.428;-1.994;2023-09-08T14:11:17;100728.41;;;39.60;32.84
66664;BME280;59683;51.428;-1.994;2023-09-08T14:13:42;100724.75;;;39.28;33.88
66664;BME280;59683;51.428;-1.994;2023-09-08T14:16:08;100723.59;;;38.93;35.37
66664;BME280;59683;51.428;-1.994;2023-09-08T14:18:34;100723.75;;;38.97;35.37
66664;BME280;59683;51.428;-1.994;2023-09-08T14:20:59;100717.16;;;39.20;35.85
66664;BME280;59683;51.428;-1.994;2023-09-08T14:23:25;100719.41;;;39.32;33.68
66664;BME280;59683;51.428;-1.994;2023-09-08T14:25:51;100707.00;;;40.19;31.55
66664;BME280;59683;51.428;-1.994;2023-09-08T14:28:17;100708.59;;;39.44;33.11
66664;BME280;59683;51.428;-1.994;2023-09-08T14:30:42;100707.63;;;39.49;34.15
66664;BME280;59683;51.428;-1.994;2023-09-08T14:33:07;100709.03;;;39.38;34.67
66664;BME280;59683;51.428;-1.994;2023-09-08T14:35:35;100711.69;;;39.65;33.52
66664;BME280;59683;51.428;-1.994;2023-09-08T14:38:00;100703.88;;;39.67;33.61
66664;BME280;59683;51.428;-1.994;2023-09-08T14:40:26;100704.28;;;39.38;34.30
66664;BME280;59683;51.428;-1.994;2023-09-08T14:42:51;100710.75;;;39.92;32.33
66664;BME280;59683;51.428;-1.994;2023-09-08T14:45:16;100710.09;;;39.28;36.58
66664;BME280;59683;51.428;-1.994;2023-09-08T14:47:42;100706.97;;;39.66;33.10
66664;BME280;59683;51.428;-1.994;2023-09-08T14:50:07;100703.78;;;38.72;36.90
66664;BME280;59683;51.428;-1.994;2023-09-08T14:52:33;100698.09;;;37.76;37.54
66664;BME280;59683;51.428;-1.994;2023-09-08T14:54:58;100697.47;;;36.36;43.59
66664;BME280;59683;51.428;-1.994;2023-09-08T14:57:23;100695.47;;;35.49;50.77
66664;BME280;59683;51.428;-1.994;2023-09-08T14:59:49;100694.47;;;34.75;64.34
66664;BME280;59683;51.428;-1.994;2023-09-08T15:02:15;100695.41;;;34.30;64.69
66664;BME280;59683;51.428;-1.994;2023-09-08T15:04:40;100700.38;;;33.56;80.24
66664;BME280;59683;51.428;-1.994;2023-09-08T15:07:05;100695.41;;;33.33;84.46
66664;BME280;59683;51.428;-1.994;2023-09-08T15:09:31;100699.72;;;33.08;88.81
66664;BME280;59683;51.428;-1.994;2023-09-08T15:11:58;100699.84;;;33.65;82.33
66664;BME280;59683;51.428;-1.994;2023-09-08T15:14:23;100694.78;;;34.64;78.61
66664;BME280;59683;51.428;-1.994;2023-09-08T15:16:49;100696.34;;;35.79;68.69
66664;BME280;59683;51.428;-1.994;2023-09-08T15:19:14;100697.00;;;36.29;57.30
66664;BME280;59683;51.428;-1.994;2023-09-08T15:21:39;100697.63;;;36.93;49.79
66664;BME280;59683;51.428;-1.994;2023-09-08T15:24:05;100694.13;;;36.87;52.91
66664;BME280;59683;51.428;-1.994;2023-09-08T15:26:31;100689.50;;;36.83;54.64
66664;BME280;59683;51.428;-1.994;2023-09-08T15:28:56;100702.75;;;36.33;56.01
66664;BME280;59683;51.428;-1.994;2023-09-08T15:31:24;100691.41;;;35.76;59.03
66664;BME280;59683;51.428;-1.994;2023-09-08T15:33:49;100689.13;;;35.04;61.79
66664;BME280;59683;51.428;-1.994;2023-09-08T15:36:16;100682.47;;;34.46;69.14
66664;BME280;59683;51.428;-1.994;2023-09-08T15:38:42;100687.22;;;34.20;79.72
66664;BME280;59683;51.428;-1.994;2023-09-08T15:43:37;100684.72;;;33.77;76.00
66664;BME280;59683;51.428;-1.994;2023-09-08T15:46:04;100686.66;;;33.46;85.17
66664;BME280;59683;51.428;-1.994;2023-09-08T15:48:29;100680.69;;;32.86;97.02